sensor_id;sensor_type;location;lat;lon;timestamp;pressure;altitude;pressure_sealevel;temperature;humidity
75192;BME280;63771;52.580;9.734;2024-02-14T00:01:05;101293.00;;;6.12;94.00
75192;BME280;63771;52.580;9.734;2024-02-14T00:03:33;101283.44;;;6.09;93.75
75192;BME280;63771;52.580;9.734;2024-02-14T00:05:59;101279.09;;;6.08;93.36
75192;BME280;63771;52.580;9.734;2024-02-14T00:08:24;101279.84;;;6.07;93.37
75192;BME280;63771;52.580;9.734;2024-02-14T00:10:49;101275.50;;;6.06;93.57
75192;BME280;63771;52.580;9.734;2024-02-14T00:13:15;101271.34;;;6.07;94.39
75192;BME280;63771;52.580;9.734;2024-02-14T00:15:43;101271.34;;;6.07;94.47
75192;BME280;63771;52.580;9.734;2024-02-14T00:18:08;101266.28;;;6.07;95.05
75192;BME280;63771;52.580;9.734;2024-02-14T00:20:34;101264.66;;;6.07;94.83
75192;BME280;63771;52.580;9.734;2024-02-14T00:22:59;101264.81;;;6.09;95.67
75192;BME280;63771;52.580;9.734;2024-02-14T00:25:24;101259.75;;;6.09;96.06
75192;BME280;63771;52.580;9.734;2024-02-14T00:27:50;101258.84;;;6.08;96.01
75192;BME280;63771;52.580;9.734;2024-02-14T00:30:15;101255.25;;;6.06;95.62
75192;BME280;63771;52.580;9.734;2024-02-14T00:32:41;101257.03;;;6.07;96.42
75192;BME280;63771;52.580;9.734;2024-02-14T00:35:07;101251.09;;;6.07;96.46
75192;BME280;63771;52.580;9.734;2024-02-14T00:37:32;101254.91;;;6.03;95.04
75192;BME280;63771;52.580;9.734;2024-02-14T00:39:58;101244.44;;;6.00;94.81
75192;BME280;63771;52.580;9.734;2024-02-14T00:42:24;101247.31;;;6.03;97.47
75192;BME280;63771;52.580;9.734;2024-02-14T00:44:49;101249.50;;;6.00;95.66
75192;BME280;63771;52.580;9.734;2024-02-14T00:47:14;101239.22;;;5.98;95.52
75192;BME280;63771;52.580;9.734;2024-02-14T00:49:40;101233.09;;;5.96;95.98
75192;BME280;63771;52.580;9.734;2024-02-14T00:52:05;101235.63;;;5.96;95.15
75192;BME280;63771;52.580;9.734;2024-02-14T00:54:31;101237.41;;;5.97;96.39
75192;BME280;63771;52.580;9.734;2024-02-14T00:56:57;101232.69;;;6.00;97.35
75192;BME280;63771;52.580;9.734;2024-02-14T00:59:22;101226.41;;;5.97;96.25
75192;BME280;63771;52.580;9.734;2024-02-14T01:01:47;101221.88;;;5.94;95.54
75192;BME280;63771;52.580;9.734;2024-02-14T01:04:13;101216.28;;;5.97;96.52
75192;BME280;63771;52.580;9.734;2024-02-14T01:06:38;101217.16;;;5.97;96.70
75192;BME280;63771;52.580;9.734;2024-02-14T01:09:03;101217.31;;;5.99;97.84
75192;BME280;63771;52.580;9.734;2024-02-14T01:11:29;101212.25;;;5.99;97.01
75192;BME280;63771;52.580;9.734;2024-02-14T01:13:54;101219.84;;;5.99;96.65
75192;BME280;63771;52.580;9.734;2024-02-14T01:16:20;101204.84;;;6.00;97.72
75192;BME280;63771;52.580;9.734;2024-02-14T01:18:45;101204.84;;;6.00;97.11
75192;BME280;63771;52.580;9.734;2024-02-14T01:21:10;101206.63;;;6.01;97.03
75192;BME280;63771;52.580;9.734;2024-02-14T01:23:36;101206.06;;;6.04;97.82
75192;BME280;63771;52.580;9.734;2024-02-14T01:26:01;101207.84;;;6.05;97.44
75192;BME280;63771;52.580;9.734;2024-02-14T01:28:27;101202.06;;;6.06;97.52
75192;BME280;63771;52.580;9.734;2024-02-14T01:30:52;101193.56;;;6.06;97.74
75192;BME280;63771;52.580;9.734;2024-02-14T01:33:18;101197.00;;;6.06;97.09
75192;BME280;63771;52.580;9.734;2024-02-14T01:35:43;101202.22;;;6.08;98.10
75192;BME280;63771;52.580;9.734;2024-02-14T01:38:09;101196.25;;;6.07;97.74
75192;BME280;63771;52.580;9.734;2024-02-14T01:40:34;101178.53;;;6.07;97.30
75192;BME280;63771;52.580;9.734;2024-02-14T01:43:00;101184.34;;;6.06;97.15
75192;BME280;63771;52.580;9.734;2024-02-14T01:45:26;101187.91;;;6.08;98.14
75192;BME280;63771;52.580;9.734;2024-02-14T01:47:52;101177.94;;;6.10;98.69
75192;BME280;63771;52.580;9.734;2024-02-14T01:50:18;101176.00;;;6.07;97.76
75192;BME280;63771;52.580;9.734;2024-02-14T01:52:50;101172.72;;;6.08;97.30
75192;BME280;63771;52.580;9.734;2024-02-14T01:55:16;101169.44;;;6.09;97.41
75192;BME280;63771;52.580;9.734;2024-02-14T01:57:42;101163.50;;;6.09;97.80
75192;BME280;63771;52.580;9.734;2024-02-14T02:00:07;101159.31;;;6.09;98.40
75192;BME280;63771;52.580;9.734;2024-02-14T02:02:36;101155.16;;;6.10;98.46
75192;BME280;63771;52.580;9.734;2024-02-14T02:05:02;101164.13;;;6.15;99.20
75192;BME280;63771;52.580;9.734;2024-02-14T02:07:28;101157.63;;;6.17;99.59
75192;BME280;63771;52.580;9.734;2024-02-14T02:09:54;101156.72;;;6.16;99.35
75192;BME280;63771;52.580;9.734;2024-02-14T02:12:20;101146.59;;;6.16;98.89
75192;BME280;63771;52.580;9.734;2024-02-14T02:14:45;101148.38;;;6.17;99.66
75192;BME280;63771;52.580;9.734;2024-02-14T02:17:10;101147.47;;;6.17;99.79
75192;BME280;63771;52.580;9.734;2024-02-14T02:19:36;101145.09;;;6.18;100.00
75192;BME280;63771;52.580;9.734;2024-02-14T02:22:02;101140.03;;;6.18;100.00
75192;BME280;63771;52.580;9.734;2024-02-14T02:24:27;101138.41;;;6.19;100.00
75192;BME280;63771;52.580;9.734;2024-02-14T02:26:52;101134.06;;;6.18;100.00
75192;BME280;63771;52.580;9.734;2024-02-14T02:29:18;101140.03;;;6.18;100.00
75192;BME280;63771;52.580;9.734;2024-02-14T02:31:45;101129.91;;;6.18;100.00
75192;BME280;63771;52.580;9.734;2024-02-14T02:34:10;101127.38;;;6.18;100.00
75192;BME280;63771;52.580;9.734;2024-02-14T02:36:36;101125.16;;;6.21;100.00
75192;BME280;63771;52.580;9.734;2024-02-14T02:39:03;101125.16;;;6.21;100.00
75192;BME280;63771;52.580;9.734;2024-02-14T02:41:30;101125.16;;;6.21;100.00
75192;BME280;63771;52.580;9.734;2024-02-14T02:43:56;101119.91;;;6.20;100.00
75192;BME280;63771;52.580;9.734;2024-02-14T02:46:22;101120.81;;;6.20;100.00
75192;BME280;63771;52.580;9.734;2024-02-14T02:48:47;101119.91;;;6.20;100.00
75192;BME280;63771;52.580;9.734;2024-02-14T02:51:12;101112.91;;;6.17;100.00
75192;BME280;63771;52.580;9.734;2024-02-14T02:53:38;101117.38;;;6.20;100.00
75192;BME280;63771;52.580;9.734;2024-02-14T02:56:03;101112.31;;;6.20;100.00
75192;BME280;63771;52.580;9.734;2024-02-14T02:58:29;101106.06;;;6.16;100.00
75192;BME280;63771;52.580;9.734;2024-02-14T03:00:54;101106.78;;;6.15;100.00
75192;BME280;63771;52.580;9.734;2024-02-14T03:03:21;101091.75;;;6.17;100.00
75192;BME280;63771;52.580;9.734;2024-02-14T03:05:47;101089.47;;;6.11;100.00
75192;BME280;63771;52.580;9.734;2024-02-14T03:08:12;101090.69;;;6.15;100.00
75192;BME280;63771;52.580;9.734;2024-02-14T03:10:40;101091.75;;;6.17;100.00
75192;BME280;63771;52.580;9.734;2024-02-14T03:13:06;101087.59;;;6.17;100.00
75192;BME280;63771;52.580;9.734;2024-02-14T03:15:34;101084.63;;;6.21;100.00
75192;BME280;63771;52.580;9.734;2024-02-14T03:17:59;101082.81;;;6.20;100.00
75192;BME280;63771;52.580;9.734;2024-02-14T03:20:24;101079.25;;;6.18;100.00
75192;BME280;63771;52.580;9.734;2024-02-14T03:22:50;101070.00;;;6.19;100.00
75192;BME280;63771;52.580;9.734;2024-02-14T03:25:19;101075.22;;;6.20;100.00
75192;BME280;63771;52.580;9.734;2024-02-14T03:27:44;101070.91;;;6.19;100.00
75192;BME280;63771;52.580;9.734;2024-02-14T03:30:14;101075.41;;;6.22;100.00
75192;BME280;63771;52.580;9.734;2024-02-14T03:32:41;101065.09;;;6.20;100.00
75192;BME280;63771;52.580;9.734;2024-02-14T03:35:07;101063.28;;;6.19;100.00
75192;BME280;63771;52.580;9.734;2024-02-14T03:37:32;101061.84;;;6.21;100.00
75192;BME280;63771;52.580;9.734;2024-02-14T03:39:58;101054.94;;;6.20;100.00
75192;BME280;63771;52.580;9.734;2024-02-14T03:42:24;101051.72;;;6.21;100.00
75192;BME280;63771;52.580;9.734;2024-02-14T03:44:51;101047.34;;;6.20;100.00
75192;BME280;63771;52.580;9.734;2024-02-14T03:47:16;101037.56;;;6.23;100.00
75192;BME280;63771;52.580;9.734;2024-02-14T03:49:42;101035.34;;;6.26;100.00
75192;BME280;63771;52.580;9.734;2024-02-14T03:52:07;101035.16;;;6.25;100.00
75192;BME280;63771;52.580;9.734;2024-02-14T03:54:36;101027.56;;;6.25;100.00
75192;BME280;63771;52.580;9.734;2024-02-14T03:57:02;101019.81;;;6.23;100.00
75192;BME280;63771;52.580;9.734;2024-02-14T03:59:27;101024.88;;;6.23;100.00
75192;BME280;63771;52.580;9.734;2024-02-14T04:01:53;101024.88;;;6.23;100.00
75192;BME280;63771;52.580;9.734;2024-02-14T04:04:18;101019.66;;;6.22;100.00
75192;BME280;63771;52.580;9.734;2024-02-14T04:06:44;101013.13;;;6.24;100.00
75192;BME280;63771;52.580;9.734;2024-02-14T04:09:10;101015.78;;;6.25;100.00
75192;BME280;63771;52.580;9.734;2024-02-14T04:11:36;101014.75;;;6.23;100.00
75192;BME280;63771;52.580;9.734;2024-02-14T04:14:01;101014.91;;;6.25;100.00
75192;BME280;63771;52.580;9.734;2024-02-14T04:16:26;101012.22;;;6.23;100.00
75192;BME280;63771;52.580;9.734;2024-02-14T04:18:52;101021.03;;;6.27;100.00
75192;BME280;63771;52.580;9.734;2024-02-14T04:21:18;101019.56;;;6.29;100.00
75192;BME280;63771;52.580;9.734;2024-02-14T04:23:43;101017.91;;;6.30;100.00
75192;BME280;63771;52.580;9.734;2024-02-14T04:26:09;101017.50;;;6.34;100.00
75192;BME280;63771;52.580;9.734;2024-02-14T04:28:34;101011.34;;;6.32;100.00
75192;BME280;63771;52.580;9.734;2024-02-14T04:30:59;101012.28;;;6.32;100.00
75192;BME280;63771;52.580;9.734;2024-02-14T04:33:25;101013.31;;;6.34;100.00
75192;BME280;63771;52.580;9.734;2024-02-14T04:35:50;101009.16;;;6.35;100.00
75192;BME280;63771;52.580;9.734;2024-02-14T04:38:16;101010.94;;;6.36;100.00
75192;BME280;63771;52.580;9.734;2024-02-14T04:40:43;101001.53;;;6.35;100.00
75192;BME280;63771;52.580;9.734;2024-02-14T04:43:09;101005.72;;;6.34;100.00
75192;BME280;63771;52.580;9.734;2024-02-14T04:45:35;101005.31;;;6.38;100.00
75192;BME280;63771;52.580;9.734;2024-02-14T04:48:00;101003.34;;;6.36;100.00
75192;BME280;63771;52.580;9.734;2024-02-14T04:50:26;101000.81;;;6.36;100.00
75192;BME280;63771;52.580;9.734;2024-02-14T04:52:51;101008.41;;;6.36;100.00
75192;BME280;63771;52.580;9.734;2024-02-14T04:55:16;101005.88;;;6.36;100.00
75192;BME280;63771;52.580;9.734;2024-02-14T04:57:42;101007.66;;;6.37;100.00
75192;BME280;63771;52.580;9.734;2024-02-14T05:00:07;101009.47;;;6.38;100.00
75192;BME280;63771;52.580;9.734;2024-02-14T05:02:34;101003.97;;;6.42;100.00
75192;BME280;63771;52.580;9.734;2024-02-14T05:05:00;100999.22;;;6.45;100.00
75192;BME280;63771;52.580;9.734;2024-02-14T05:07:26;101000.09;;;6.45;100.00
75192;BME280;63771;52.580;9.734;2024-02-14T05:09:52;100996.69;;;6.45;100.00
75192;BME280;63771;52.580;9.734;2024-02-14T05:12:17;100992.66;;;6.47;100.00
75192;BME280;63771;52.580;9.734;2024-02-14T05:14:43;100991.94;;;6.48;100.00
75192;BME280;63771;52.580;9.734;2024-02-14T05:17:08;100996.41;;;6.50;100.00
75192;BME280;63771;52.580;9.734;2024-02-14T05:19:33;100988.25;;;6.53;100.00
75192;BME280;63771;52.580;9.734;2024-02-14T05:21:59;100986.75;;;6.55;100.00
75192;BME280;63771;52.580;9.734;2024-02-14T05:24:24;100991.81;;;6.55;100.00
75192;BME280;63771;52.580;9.734;2024-02-14T05:26:52;100982.72;;;6.57;100.00
75192;BME280;63771;52.580;9.734;2024-02-14T05:29:18;100985.56;;;6.60;100.00
75192;BME280;63771;52.580;9.734;2024-02-14T05:31:46;100977.06;;;6.60;100.00
75192;BME280;63771;52.580;9.734;2024-02-14T05:34:13;100979.91;;;6.63;100.00
75192;BME280;63771;52.580;9.734;2024-02-14T05:36:38;100981.72;;;6.64;100.00
75192;BME280;63771;52.580;9.734;2024-02-14T05:39:04;100988.88;;;6.68;100.00
75192;BME280;63771;52.580;9.734;2024-02-14T05:41:33;100989.78;;;6.68;100.00
75192;BME280;63771;52.580;9.734;2024-02-14T05:43:58;100985.63;;;6.69;100.00
75192;BME280;63771;52.580;9.734;2024-02-14T05:46:24;100982.63;;;6.73;100.00
75192;BME280;63771;52.580;9.734;2024-02-14T05:48:50;100982.06;;;6.75;100.00
75192;BME280;63771;52.580;9.734;2024-02-14T05:51:17;100981.31;;;6.76;100.00
75192;BME280;63771;52.580;9.734;2024-02-14T05:53:42;100986.53;;;6.78;100.00
75192;BME280;63771;52.580;9.734;2024-02-14T05:56:08;100987.75;;;6.82;100.00
75192;BME280;63771;52.580;9.734;2024-02-14T05:58:33;100979.38;;;6.83;100.00
75192;BME280;63771;52.580;9.734;2024-02-14T06:00:58;100986.56;;;6.87;100.00
75192;BME280;63771;52.580;9.734;2024-02-14T06:03:24;100982.38;;;6.87;100.00
75192;BME280;63771;52.580;9.734;2024-02-14T06:05:49;100977.44;;;6.89;100.00
75192;BME280;63771;52.580;9.734;2024-02-14T06:08:14;100975.25;;;6.92;100.00
75192;BME280;63771;52.580;9.734;2024-02-14T06:10:40;100977.03;;;6.93;100.00
75192;BME280;63771;52.580;9.734;2024-02-14T06:13:05;100973.75;;;6.94;100.00
75192;BME280;63771;52.580;9.734;2024-02-14T06:15:31;100966.31;;;6.95;100.00
75192;BME280;63771;52.580;9.734;2024-02-14T06:17:56;100967.19;;;6.96;100.00
75192;BME280;63771;52.580;9.734;2024-02-14T06:20:23;100969.31;;;7.00;100.00
75192;BME280;63771;52.580;9.734;2024-02-14T06:22:48;100973.78;;;7.02;100.00
75192;BME280;63771;52.580;9.734;2024-02-14T06:25:13;100969.00;;;6.97;100.00
75192;BME280;63771;52.580;9.734;2024-02-14T06:27:39;100968.38;;;6.99;100.00
75192;BME280;63771;52.580;9.734;2024-02-14T06:30:05;100974.66;;;7.03;100.00
75192;BME280;63771;52.580;9.734;2024-02-14T06:32:30;100965.88;;;7.08;100.00
75192;BME280;63771;52.580;9.734;2024-02-14T06:34:55;100973.63;;;7.10;100.00
75192;BME280;63771;52.580;9.734;2024-02-14T06:37:21;100975.44;;;7.11;100.00
75192;BME280;63771;52.580;9.734;2024-02-14T06:39:46;100969.75;;;7.13;100.00
75192;BME280;63771;52.580;9.734;2024-02-14T06:42:13;100978.59;;;7.17;100.00
75192;BME280;63771;52.580;9.734;2024-02-14T06:44:38;100983.94;;;7.20;100.00
75192;BME280;63771;52.580;9.734;2024-02-14T06:47:04;100979.31;;;7.24;100.00
75192;BME280;63771;52.580;9.734;2024-02-14T06:49:29;100979.50;;;7.26;100.00
75192;BME280;63771;52.580;9.734;2024-02-14T06:51:54;100987.25;;;7.27;100.00
75192;BME280;63771;52.580;9.734;2024-02-14T06:54:20;100988.91;;;7.27;100.00
75192;BME280;63771;52.580;9.734;2024-02-14T06:56:45;100987.53;;;7.30;100.00
75192;BME280;63771;52.580;9.734;2024-02-14T06:59:10;100988.75;;;7.34;100.00
75192;BME280;63771;52.580;9.734;2024-02-14T07:01:36;100992.50;;;7.38;100.00
75192;BME280;63771;52.580;9.734;2024-02-14T07:04:01;100991.75;;;7.39;100.00
75192;BME280;63771;52.580;9.734;2024-02-14T07:06:27;100993.53;;;7.40;100.00
75192;BME280;63771;52.580;9.734;2024-02-14T07:08:53;100992.06;;;7.42;100.00
75192;BME280;63771;52.580;9.734;2024-02-14T07:11:18;100993.84;;;7.43;100.00
75192;BME280;63771;52.580;9.734;2024-02-14T07:13:44;100996.84;;;7.47;100.00
75192;BME280;63771;52.580;9.734;2024-02-14T07:16:09;100990.41;;;7.51;100.00
75192;BME280;63771;52.580;9.734;2024-02-14T07:18:35;100992.22;;;7.52;100.00
75192;BME280;63771;52.580;9.734;2024-02-14T07:21:00;100989.97;;;7.55;100.00
75192;BME280;63771;52.580;9.734;2024-02-14T07:23:26;100984.59;;;7.52;100.00
75192;BME280;63771;52.580;9.734;2024-02-14T07:25:52;100996.81;;;7.56;100.00
75192;BME280;63771;52.580;9.734;2024-02-14T07:28:18;100991.91;;;7.57;100.00
75192;BME280;63771;52.580;9.734;2024-02-14T07:30:43;100998.91;;;7.60;100.00
75192;BME280;63771;52.580;9.734;2024-02-14T07:33:09;100997.41;;;7.62;100.00
75192;BME280;63771;52.580;9.734;2024-02-14T07:35:34;101001.31;;;7.67;100.00
75192;BME280;63771;52.580;9.734;2024-02-14T07:38:00;100994.75;;;7.69;100.00
75192;BME280;63771;52.580;9.734;2024-02-14T07:40:26;101003.41;;;7.71;100.00
75192;BME280;63771;52.580;9.734;2024-02-14T07:42:52;101004.75;;;7.76;100.00
75192;BME280;63771;52.580;9.734;2024-02-14T07:45:17;100999.97;;;7.79;100.00
75192;BME280;63771;52.580;9.734;2024-02-14T07:47:43;101002.78;;;7.82;100.00
75192;BME280;63771;52.580;9.734;2024-02-14T07:50:08;101006.41;;;7.84;100.00
75192;BME280;63771;52.580;9.734;2024-02-14T07:52:34;101004.13;;;7.88;100.00
75192;BME280;63771;52.580;9.734;2024-02-14T07:55:01;101007.75;;;7.90;100.00
75192;BME280;63771;52.580;9.734;2024-02-14T07:57:26;101011.44;;;7.93;100.00
75192;BME280;63771;52.580;9.734;2024-02-14T07:59:52;101015.06;;;7.95;100.00
75192;BME280;63771;52.580;9.734;2024-02-14T08:02:19;101011.19;;;7.99;100.00
75192;BME280;63771;52.580;9.734;2024-02-14T08:04:44;101012.22;;;8.01;100.00
75192;BME280;63771;52.580;9.734;2024-02-14T08:07:10;101015.06;;;8.04;100.00
75192;BME280;63771;52.580;9.734;2024-02-14T08:09:36;101007.72;;;8.07;100.00
75192;BME280;63771;52.580;9.734;2024-02-14T08:12:01;101004.41;;;8.08;100.00
75192;BME280;63771;52.580;9.734;2024-02-14T08:14:26;101014.13;;;8.12;100.00
75192;BME280;63771;52.580;9.734;2024-02-14T08:16:52;101005.31;;;8.17;100.00
75192;BME280;63771;52.580;9.734;2024-02-14T08:19:17;101011.72;;;8.22;100.00
75192;BME280;63771;52.580;9.734;2024-02-14T08:21:44;101010.50;;;8.27;100.00
75192;BME280;63771;52.580;9.734;2024-02-14T08:24:09;101011.72;;;8.31;100.00
75192;BME280;63771;52.580;9.734;2024-02-14T08:26:34;101016.19;;;8.33;100.00
75192;BME280;63771;52.580;9.734;2024-02-14T08:28:59;101018.31;;;8.38;100.00
75192;BME280;63771;52.580;9.734;2024-02-14T08:31:25;101015.31;;;8.42;100.00
75192;BME280;63771;52.580;9.734;2024-02-14T08:33:50;101023.22;;;8.45;100.00
75192;BME280;63771;52.580;9.734;2024-02-14T08:36:15;101026.06;;;8.48;100.00
75192;BME280;63771;52.580;9.734;2024-02-14T08:38:44;101023.94;;;8.52;100.00
75192;BME280;63771;52.580;9.734;2024-02-14T08:41:09;101024.22;;;8.55;100.00
75192;BME280;63771;52.580;9.734;2024-02-14T08:43:35;101028.59;;;8.56;100.00
75192;BME280;63771;52.580;9.734;2024-02-14T08:46:00;101032.28;;;8.60;100.00
75192;BME280;63771;52.580;9.734;2024-02-14T08:48:25;101030.81;;;8.62;100.00
75192;BME280;63771;52.580;9.734;2024-02-14T08:50:52;101034.38;;;8.64;100.00
75192;BME280;63771;52.580;9.734;2024-02-14T08:53:18;101028.97;;;8.70;100.00
75192;BME280;63771;52.580;9.734;2024-02-14T08:55:43;101027.44;;;8.72;100.00
75192;BME280;63771;52.580;9.734;2024-02-14T08:58:09;101034.94;;;8.70;100.00
75192;BME280;63771;52.580;9.734;2024-02-14T09:00:35;101031.31;;;8.77;100.00
75192;BME280;63771;52.580;9.734;2024-02-14T09:03:01;101028.94;;;8.78;100.00
75192;BME280;63771;52.580;9.734;2024-02-14T09:05:27;101031.63;;;8.80;100.00
75192;BME280;63771;52.580;9.734;2024-02-14T09:07:54;101036.69;;;8.88;100.00
75192;BME280;63771;52.580;9.734;2024-02-14T09:10:19;101041.44;;;8.94;100.00
75192;BME280;63771;52.580;9.734;2024-02-14T09:12:44;101038.56;;;9.00;100.00
75192;BME280;63771;52.580;9.734;2024-02-14T09:15:10;101038.84;;;9.03;100.00
75192;BME280;63771;52.580;9.734;2024-02-14T09:17:37;101033.91;;;9.04;100.00
75192;BME280;63771;52.580;9.734;2024-02-14T09:20:04;101042.44;;;9.05;100.00
75192;BME280;63771;52.580;9.734;2024-02-14T09:22:31;101045.00;;;9.05;100.00
75192;BME280;63771;52.580;9.734;2024-02-14T09:24:56;101047.06;;;9.09;100.00
75192;BME280;63771;52.580;9.734;2024-02-14T09:27:22;101037.78;;;9.09;100.00
75192;BME280;63771;52.580;9.734;2024-02-14T09:29:47;101043.78;;;9.10;100.00
75192;BME280;63771;52.580;9.734;2024-02-14T09:32:12;101045.22;;;9.17;100.00
75192;BME280;63771;52.580;9.734;2024-02-14T09:34:38;101053.75;;;9.17;100.00
75192;BME280;63771;52.580;9.734;2024-02-14T09:37:03;101056.13;;;9.24;100.00
75192;BME280;63771;52.580;9.734;2024-02-14T09:39:30;101054.59;;;9.26;100.00
75192;BME280;63771;52.580;9.734;2024-02-14T09:41:59;101054.75;;;9.28;100.00
75192;BME280;63771;52.580;9.734;2024-02-14T09:44:27;101052.34;;;9.29;100.00
75192;BME280;63771;52.580;9.734;2024-02-14T09:46:54;101057.44;;;9.29;100.00
75192;BME280;63771;52.580;9.734;2024-02-14T09:49:21;101043.97;;;9.30;100.00
75192;BME280;63771;52.580;9.734;2024-02-14T09:51:47;101054.81;;;9.38;100.00
75192;BME280;63771;52.580;9.734;2024-02-14T09:54:14;101044.19;;;9.42;100.00
75192;BME280;63771;52.580;9.734;2024-02-14T09:56:40;101054.16;;;9.49;100.00
75192;BME280;63771;52.580;9.734;2024-02-14T09:59:05;101056.38;;;9.55;100.00
75192;BME280;63771;52.580;9.734;2024-02-14T10:01:31;101058.31;;;9.57;100.00
75192;BME280;63771;52.580;9.734;2024-02-14T10:03:56;101060.50;;;9.63;100.00
75192;BME280;63771;52.580;9.734;2024-02-14T10:06:22;101070.84;;;9.64;100.00
75192;BME280;63771;52.580;9.734;2024-02-14T10:08:49;101077.88;;;9.67;100.00
75192;BME280;63771;52.580;9.734;2024-02-14T10:11:16;101079.66;;;9.68;100.00
75192;BME280;63771;52.580;9.734;2024-02-14T10:13:44;101087.31;;;9.68;100.00
75192;BME280;63771;52.580;9.734;2024-02-14T10:16:11;101084.88;;;9.70;100.00
75192;BME280;63771;52.580;9.734;2024-02-14T10:18:38;101090.28;;;9.73;100.00
75192;BME280;63771;52.580;9.734;2024-02-14T10:21:03;101090.41;;;9.74;100.00
75192;BME280;63771;52.580;9.734;2024-02-14T10:23:29;101093.50;;;9.80;100.00
75192;BME280;63771;52.580;9.734;2024-02-14T10:25:56;101102.47;;;9.85;100.00
75192;BME280;63771;52.580;9.734;2024-02-14T10:28:21;101104.25;;;9.86;100.00
75192;BME280;63771;52.580;9.734;2024-02-14T10:30:47;101106.06;;;9.87;100.00
75192;BME280;63771;52.580;9.734;2024-02-14T10:33:15;101104.66;;;9.91;100.00
75192;BME280;63771;52.580;9.734;2024-02-14T10:35:41;101097.44;;;9.96;100.00
75192;BME280;63771;52.580;9.734;2024-02-14T10:38:08;101095.19;;;9.99;100.00
75192;BME280;63771;52.580;9.734;2024-02-14T10:40:35;101103.09;;;10.02;100.00
75192;BME280;63771;52.580;9.734;2024-02-14T10:43:01;101102.59;;;10.06;100.00
75192;BME280;63771;52.580;9.734;2024-02-14T10:45:27;101103.09;;;10.02;100.00
75192;BME280;63771;52.580;9.734;2024-02-14T10:47:56;101107.09;;;10.08;100.00
75192;BME280;63771;52.580;9.734;2024-02-14T10:50:24;101114.13;;;10.11;100.00
75192;BME280;63771;52.580;9.734;2024-02-14T10:52:51;101119.09;;;10.09;100.00
75192;BME280;63771;52.580;9.734;2024-02-14T10:55:20;101119.22;;;10.11;100.00
75192;BME280;63771;52.580;9.734;2024-02-14T10:57:46;101111.56;;;10.11;100.00
75192;BME280;63771;52.580;9.734;2024-02-14T11:00:14;101109.31;;;10.14;100.00
75192;BME280;63771;52.580;9.734;2024-02-14T11:02:40;101112.75;;;10.14;100.00
75192;BME280;63771;52.580;9.734;2024-02-14T11:05:12;101120.53;;;10.16;100.00
75192;BME280;63771;52.580;9.734;2024-02-14T11:07:44;101125.91;;;10.19;100.00
75192;BME280;63771;52.580;9.734;2024-02-14T11:10:13;101129.22;;;10.18;100.00
75192;BME280;63771;52.580;9.734;2024-02-14T11:12:40;101126.69;;;10.18;100.00
75192;BME280;63771;52.580;9.734;2024-02-14T11:15:27;101126.03;;;10.20;100.00
75192;BME280;63771;52.580;9.734;2024-02-14T11:18:04;101124.38;;;10.21;100.00
75192;BME280;63771;52.580;9.734;2024-02-14T11:20:35;101132.03;;;10.21;100.00
75192;BME280;63771;52.580;9.734;2024-02-14T11:23:04;101127.94;;;10.23;100.00
75192;BME280;63771;52.580;9.734;2024-02-14T11:25:39;101137.72;;;10.27;100.00
75192;BME280;63771;52.580;9.734;2024-02-14T11:28:14;101131.09;;;10.29;100.00
75192;BME280;63771;52.580;9.734;2024-02-14T11:30:41;101131.84;;;10.28;100.00
75192;BME280;63771;52.580;9.734;2024-02-14T11:35:39;101128.97;;;10.34;100.00
75192;BME280;63771;52.580;9.734;2024-02-14T11:38:05;101138.81;;;10.39;100.00
75192;BME280;63771;52.580;9.734;2024-02-14T11:40:32;101134.13;;;10.44;100.00
75192;BME280;63771;52.580;9.734;2024-02-14T11:42:57;101134.88;;;10.43;100.00
75192;BME280;63771;52.580;9.734;2024-02-14T11:45:22;101137.69;;;10.46;100.00
75192;BME280;63771;52.580;9.734;2024-02-14T11:47:48;101137.22;;;10.50;100.00
75192;BME280;63771;52.580;9.734;2024-02-14T11:50:13;101139.91;;;10.52;100.00
75192;BME280;63771;52.580;9.734;2024-02-14T11:52:39;101140.19;;;10.55;100.00
75192;BME280;63771;52.580;9.734;2024-02-14T11:55:05;101147.06;;;10.56;100.00
75192;BME280;63771;52.580;9.734;2024-02-14T11:57:31;101143.28;;;10.61;100.00
75192;BME280;63771;52.580;9.734;2024-02-14T11:59:57;101150.28;;;10.63;100.00
75192;BME280;63771;52.580;9.734;2024-02-14T12:02:23;101150.44;;;10.65;100.00
75192;BME280;63771;52.580;9.734;2024-02-14T12:04:49;101149.94;;;10.69;100.00
75192;BME280;63771;52.580;9.734;2024-02-14T12:07:15;101152.63;;;10.70;100.00
75192;BME280;63771;52.580;9.734;2024-02-14T12:09:43;101155.69;;;10.66;100.00
75192;BME280;63771;52.580;9.734;2024-02-14T12:12:08;101157.34;;;10.66;100.00
75192;BME280;63771;52.580;9.734;2024-02-14T12:14:34;101163.59;;;10.69;100.00
75192;BME280;63771;52.580;9.734;2024-02-14T12:17:00;101163.34;;;10.66;100.00
75192;BME280;63771;52.580;9.734;2024-02-14T12:19:28;101165.25;;;10.69;100.00
75192;BME280;63771;52.580;9.734;2024-02-14T12:21:54;101164.47;;;10.70;100.00
75192;BME280;63771;52.580;9.734;2024-02-14T12:24:21;101170.34;;;10.69;100.00
75192;BME280;63771;52.580;9.734;2024-02-14T12:26:48;101165.25;;;10.69;100.00
75192;BME280;63771;52.580;9.734;2024-02-14T12:29:14;101172.41;;;10.73;100.00
75192;BME280;63771;52.580;9.734;2024-02-14T12:31:39;101170.34;;;10.69;100.00
75192;BME280;63771;52.580;9.734;2024-02-14T12:34:04;101166.13;;;10.69;100.00
75192;BME280;63771;52.580;9.734;2024-02-14T12:36:33;101166.28;;;10.71;100.00
75192;BME280;63771;52.580;9.734;2024-02-14T12:38:59;101163.75;;;10.71;100.00
75192;BME280;63771;52.580;9.734;2024-02-14T12:41:27;101166.53;;;10.74;100.00
75192;BME280;63771;52.580;9.734;2024-02-14T12:43:54;101164.47;;;10.70;100.00
75192;BME280;63771;52.580;9.734;2024-02-14T12:46:19;101169.44;;;10.68;100.00